createdAt,value
2018-02-09T00:00:27.553Z,48.33
2018-02-09T00:02:55.058Z,44.37
2018-02-09T00:05:23.310Z,46.67
2018-02-09T00:07:50.840Z,46.97
2018-02-09T00:10:18.326Z,44.53
2018-02-09T00:12:45.834Z,45.57
2018-02-09T00:15:13.310Z,46.90
2018-02-09T00:17:40.818Z,45.27
2018-02-09T00:20:08.302Z,48.67
2018-02-09T00:22:47.429Z,46.07
2018-02-09T00:25:15.670Z,43.60
2018-02-09T00:27:43.175Z,45.47
2018-02-09T00:30:11.427Z,45.77
2018-02-09T00:32:38.926Z,49.17
2018-02-09T00:35:07.179Z,47.70
2018-02-09T00:37:34.678Z,48.13
2018-02-09T00:40:02.164Z,44.80
2018-02-09T00:42:29.671Z,48.00
2018-02-09T00:44:57.155Z,47.17
2018-02-09T00:47:24.659Z,45.77
2018-02-09T00:49:52.141Z,45.77
2018-02-09T00:52:20.410Z,47.63
2018-02-09T00:54:47.891Z,43.03
2018-02-09T00:57:15.399Z,43.00
2018-02-09T00:59:42.887Z,47.40
2018-02-09T01:02:10.395Z,45.17
2018-02-09T01:04:37.874Z,48.73
2018-02-09T01:07:06.147Z,46.23
2018-02-09T01:09:33.626Z,46.17
2018-02-09T01:12:01.904Z,47.53
2018-02-09T01:14:29.394Z,45.63
2018-02-09T01:16:57.664Z,46.83
2018-02-09T01:19:25.151Z,47.17
2018-02-09T01:21:53.418Z,44.50
2018-02-09T01:24:20.919Z,47.87
2018-02-09T01:26:49.166Z,47.67
2018-02-09T01:29:16.674Z,46.40
2018-02-09T01:31:44.923Z,43.77
2018-02-09T01:34:12.430Z,44.90
2018-02-09T01:36:40.678Z,45.97
2018-02-09T01:39:08.183Z,43.77
2018-02-09T01:41:36.438Z,45.03
2018-02-09T01:44:03.946Z,42.77
2018-02-09T01:46:32.195Z,45.10
2018-02-09T01:48:59.710Z,49.27
2018-02-09T01:51:27.955Z,43.50
2018-02-09T01:53:55.460Z,48.40
2018-02-09T01:56:23.707Z,44.60
2018-02-09T01:58:51.207Z,42.90
2018-02-09T02:01:18.699Z,44.93
2018-02-09T02:03:46.979Z,47.00
2018-02-09T02:06:14.466Z,45.00
2018-02-09T02:08:41.970Z,46.77
2018-02-09T02:11:09.450Z,47.37
2018-02-09T02:13:36.955Z,43.77
2018-02-09T02:16:05.199Z,45.13
2018-02-09T02:18:32.698Z,46.70
2018-02-09T02:21:00.182Z,46.70
2018-02-09T02:23:28.442Z,45.03
2018-02-09T02:25:55.927Z,46.57
2018-02-09T02:28:23.435Z,47.03
2018-02-09T02:30:50.924Z,45.27
2018-02-09T02:33:18.424Z,47.17
2018-02-09T02:35:45.907Z,43.93
2018-02-09T02:38:13.408Z,46.50
2018-02-09T02:40:40.894Z,46.97
2018-02-09T02:43:08.404Z,47.67
2018-02-09T02:45:35.891Z,43.57
2018-02-09T02:48:04.174Z,46.07
2018-02-09T02:50:31.663Z,45.00
2018-02-09T02:52:59.920Z,47.47
2018-02-09T02:55:27.420Z,43.90
2018-02-09T02:57:54.928Z,46.30
2018-02-09T03:00:22.426Z,45.47
2018-02-09T03:02:49.932Z,43.77
2018-02-09T03:05:18.187Z,44.77
2018-02-09T03:07:45.686Z,44.57
2018-02-09T03:10:13.174Z,47.30
2018-02-09T03:12:40.684Z,44.53
2018-02-09T03:15:08.163Z,44.93
2018-02-09T03:17:35.654Z,43.53
2018-02-09T03:20:03.135Z,44.87
2018-02-09T03:22:31.410Z,45.40
2018-02-09T03:24:58.894Z,46.70
2018-02-09T03:27:27.170Z,47.47
2018-02-09T03:29:54.654Z,44.33
2018-02-09T03:32:22.140Z,47.27
2018-02-09T03:34:50.406Z,46.60
2018-02-09T03:37:17.887Z,44.23
2018-02-09T03:39:46.149Z,45.60
2018-02-09T03:42:13.638Z,46.50
2018-02-09T03:44:41.138Z,46.30
2018-02-09T03:47:08.623Z,44.37
2018-02-09T03:49:36.121Z,46.30
2018-02-09T03:52:03.613Z,47.10
2018-02-09T03:54:31.123Z,45.17
2018-02-09T03:56:58.606Z,43.33
2018-02-09T03:59:26.107Z,42.53
2018-02-09T04:01:53.587Z,43.67
2018-02-09T04:04:21.083Z,44.43
2018-02-09T04:06:49.335Z,44.87
2018-02-09T04:09:16.831Z,44.23
2018-02-09T04:11:45.078Z,45.40
2018-02-09T04:14:12.588Z,45.20
2018-02-09T04:16:40.830Z,46.67
2018-02-09T04:19:08.330Z,45.17
2018-02-09T04:21:35.819Z,45.20
2018-02-09T04:24:04.086Z,46.80
2018-02-09T04:26:31.575Z,45.60
2018-02-09T04:28:59.843Z,44.23
2018-02-09T04:31:27.323Z,43.83
2018-02-09T04:33:54.822Z,44.40
2018-02-09T04:36:22.305Z,43.43
2018-02-09T04:38:50.575Z,42.87
2018-02-09T04:41:18.826Z,42.53
2018-02-09T04:43:46.331Z,45.60
2018-02-09T04:46:14.578Z,45.37
2018-02-09T04:48:42.087Z,45.63
2018-02-09T04:51:10.336Z,42.90
2018-02-09T04:53:37.834Z,42.07
2018-02-09T04:56:06.085Z,41.80
2018-02-09T04:58:33.590Z,43.53
2018-02-09T05:01:01.835Z,44.57
2018-02-09T05:03:29.337Z,47.40
2018-02-09T05:05:56.823Z,44.20
2018-02-09T05:08:25.087Z,45.20
2018-02-09T05:10:52.575Z,45.40
2018-02-09T05:13:20.076Z,44.43
2018-02-09T05:15:47.562Z,45.87
2018-02-09T05:18:15.066Z,46.93
2018-02-09T05:20:42.554Z,43.83
2018-02-09T05:23:10.055Z,45.70
2018-02-09T05:25:37.536Z,43.83
2018-02-09T05:28:05.032Z,41.73
2018-02-09T05:30:32.507Z,48.33
2018-02-09T05:33:00.007Z,48.43
2018-02-09T05:35:27.496Z,48.53
2018-02-09T05:37:54.975Z,45.20
2018-02-09T05:40:22.470Z,47.10
2018-02-09T05:42:49.956Z,47.00
2018-02-09T05:45:17.450Z,46.87
2018-02-09T05:47:44.935Z,49.30
2018-02-09T05:50:13.203Z,49.50
2018-02-09T05:52:40.687Z,46.53
2018-02-09T05:55:08.958Z,48.50
2018-02-09T05:57:36.442Z,47.30
2018-02-09T06:00:04.702Z,47.30
2018-02-09T06:02:32.187Z,47.60
2018-02-09T06:04:59.691Z,50.30
2018-02-09T06:07:27.171Z,47.50
2018-02-09T06:09:54.666Z,48.43
2018-02-09T06:12:22.157Z,48.73
2018-02-09T06:14:49.663Z,46.47
2018-02-09T06:17:17.910Z,46.00
2018-02-09T06:19:45.411Z,45.40
2018-02-09T06:22:13.659Z,46.57
2018-02-09T06:24:41.162Z,46.17
2018-02-09T06:27:08.648Z,44.97
2018-02-09T06:29:36.914Z,44.17
2018-02-09T06:32:04.399Z,45.30
2018-02-09T06:34:32.667Z,45.50
2018-02-09T06:37:00.198Z,42.00
2018-02-09T06:39:27.700Z,45.20
2018-02-09T06:41:55.179Z,45.87
2018-02-09T06:44:23.611Z,42.90
2018-02-09T06:46:51.091Z,45.80
2018-02-09T06:49:18.614Z,43.83
2018-02-09T06:51:46.114Z,45.13
2018-02-09T06:54:13.631Z,44.03
2018-02-09T06:56:41.106Z,45.60
2018-02-09T06:59:08.629Z,44.60
2018-02-09T07:01:36.119Z,45.23
2018-02-09T07:04:03.615Z,44.60
2018-02-09T07:06:31.095Z,44.60
2018-02-09T07:08:58.590Z,42.57
2018-02-09T07:11:26.859Z,45.50
2018-02-09T07:13:54.359Z,46.23
2018-02-09T07:16:21.850Z,47.17
2018-02-09T07:18:49.357Z,45.63
2018-02-09T07:21:16.839Z,42.50
2018-02-09T07:23:44.351Z,43.20
2018-02-09T07:26:11.832Z,44.50
2018-02-09T07:28:39.328Z,43.93
2018-02-09T07:31:06.802Z,44.87
2018-02-09T07:33:34.293Z,46.30
2018-02-09T07:36:01.775Z,45.10
2018-02-09T07:38:29.271Z,44.87
2018-02-09T07:40:56.763Z,47.17
2018-02-09T07:43:24.243Z,45.03
2018-02-09T07:45:51.735Z,46.37
2018-02-09T07:48:19.214Z,47.03
2018-02-09T07:50:46.710Z,45.30
2018-02-09T07:53:14.969Z,47.50
2018-02-09T07:55:42.477Z,48.27
2018-02-09T07:58:09.950Z,47.47
2018-02-09T08:00:37.451Z,46.60
2018-02-09T08:03:04.934Z,45.87
2018-02-09T08:05:32.435Z,48.47
2018-02-09T08:08:00.679Z,50.03
2018-02-09T08:10:28.189Z,49.60
2018-02-09T08:12:55.667Z,48.17
2018-02-09T08:15:23.940Z,49.30
2018-02-09T08:17:51.423Z,48.63
2018-02-09T08:20:19.695Z,47.23
2018-02-09T08:22:47.179Z,47.60
2018-02-09T08:25:14.672Z,45.67
2018-02-09T08:27:42.146Z,42.93
2018-02-09T08:30:09.685Z,47.20
2018-02-09T08:32:37.134Z,46.07
2018-02-09T08:35:04.627Z,47.10
2018-02-09T08:37:32.108Z,51.83
2018-02-09T08:40:00.415Z,46.93
2018-02-09T08:42:27.891Z,45.20
2018-02-09T08:44:55.385Z,47.30
2018-02-09T08:47:22.869Z,47.27
2018-02-09T08:49:50.366Z,46.00
2018-02-09T08:52:17.850Z,48.60
2018-02-09T08:54:46.110Z,48.30
2018-02-09T08:57:13.594Z,49.10
2018-02-09T08:59:41.122Z,49.10
2018-02-09T09:02:08.590Z,45.07
2018-02-09T09:04:36.087Z,47.97
2018-02-09T09:07:03.562Z,46.57
2018-02-09T09:09:31.063Z,48.50
2018-02-09T09:11:59.313Z,49.00
2018-02-09T09:14:26.815Z,45.10
2018-02-09T09:16:55.063Z,48.80
2018-02-09T09:19:22.642Z,47.93
2018-02-09T09:21:50.115Z,49.43
2018-02-09T09:24:17.615Z,49.00
2018-02-09T09:26:45.864Z,48.60
2018-02-09T09:29:13.363Z,47.80
2018-02-09T09:31:41.607Z,46.53
2018-02-09T09:34:09.122Z,48.80
2018-02-09T09:36:37.372Z,46.20
2018-02-09T09:39:04.871Z,43.63
2018-02-09T09:41:33.119Z,50.30
2018-02-09T09:44:00.619Z,46.80
2018-02-09T09:46:28.899Z,47.60
2018-02-09T09:48:56.468Z,46.63
2018-02-09T09:51:23.946Z,50.30
2018-02-09T09:53:51.424Z,49.73
2018-02-09T09:56:18.916Z,50.40
2018-02-09T09:58:47.159Z,49.83
2018-02-09T10:01:20.355Z,48.53
2018-02-09T10:03:47.842Z,53.73
2018-02-09T10:06:15.346Z,49.10
2018-02-09T10:08:43.586Z,49.40
2018-02-09T10:11:11.098Z,49.17
2018-02-09T10:13:39.347Z,49.33
2018-02-09T10:16:06.843Z,48.50
2018-02-09T10:18:34.354Z,47.13
2018-02-09T10:21:01.911Z,47.47
2018-02-09T10:23:29.391Z,50.00
2018-02-09T10:25:56.890Z,48.33
2018-02-09T10:28:24.435Z,47.50
2018-02-09T10:30:51.978Z,49.00
2018-02-09T10:33:20.229Z,47.60
2018-02-09T10:35:47.731Z,46.40
2018-02-09T10:38:15.978Z,44.23
2018-02-09T10:40:43.483Z,45.77
2018-02-09T10:43:10.959Z,44.60
2018-02-09T10:45:39.233Z,44.57
2018-02-09T10:48:06.714Z,45.83
2018-02-09T10:50:34.202Z,43.30
2018-02-09T10:53:02.443Z,42.50
2018-02-09T10:55:29.935Z,44.40
2018-02-09T10:57:57.415Z,43.30
2018-02-09T11:00:31.227Z,43.30
2018-02-09T11:02:58.698Z,41.70
2018-02-09T11:05:26.203Z,48.17
2018-02-09T11:07:53.684Z,41.33
2018-02-09T11:10:37.070Z,44.20
2018-02-09T11:13:10.262Z,41.30
2018-02-09T11:15:37.758Z,42.80
2018-02-09T11:18:05.242Z,42.10
2018-02-09T11:20:33.498Z,39.60
2018-02-09T11:23:00.978Z,40.50
2018-02-09T11:25:28.485Z,43.07
2018-02-09T11:27:55.954Z,42.03
2018-02-09T11:30:23.451Z,41.83
2018-02-09T11:32:50.930Z,42.50
2018-02-09T11:35:18.427Z,44.50
2018-02-09T11:37:45.898Z,40.80
2018-02-09T11:40:13.426Z,41.60
2018-02-09T11:42:40.912Z,40.90
2018-02-09T11:45:08.407Z,37.87
2018-02-09T11:47:35.883Z,37.07
2018-02-09T11:50:03.383Z,37.93
2018-02-09T11:52:30.866Z,40.07
2018-02-09T11:54:58.363Z,35.47
2018-02-09T11:57:25.843Z,38.43
2018-02-09T11:59:53.339Z,39.13
2018-02-09T12:02:21.579Z,36.50
2018-02-09T12:04:49.083Z,49.00
2018-02-09T12:07:16.567Z,52.43
2018-02-09T12:09:44.058Z,37.87
2018-02-09T12:12:11.540Z,39.93
2018-02-09T12:14:39.055Z,38.87
2018-02-09T12:17:06.530Z,41.30
2018-02-09T12:19:34.007Z,42.40
2018-02-09T12:22:01.511Z,40.30
2018-02-09T12:24:28.986Z,38.30
2018-02-09T12:26:56.502Z,39.83
2018-02-09T12:29:23.976Z,40.33
2018-02-09T12:31:51.475Z,40.67
2018-02-09T12:34:19.720Z,37.23
2018-02-09T12:36:47.214Z,41.90
2018-02-09T12:39:14.699Z,37.47
2018-02-09T12:41:42.190Z,39.87
2018-02-09T12:44:09.663Z,40.50
2018-02-09T12:46:37.159Z,56.43
2018-02-09T12:49:04.646Z,59.37
2018-02-09T12:51:32.147Z,48.27
2018-02-09T12:53:59.682Z,41.50
2018-02-09T12:56:27.178Z,41.37
2018-02-09T12:58:54.656Z,42.93
2018-02-09T13:01:22.931Z,39.57
2018-02-09T13:03:50.413Z,38.13
2018-02-09T13:06:17.911Z,40.00
2018-02-09T13:08:45.391Z,42.10
2018-02-09T13:11:12.886Z,41.90
2018-02-09T13:13:40.366Z,44.50
2018-02-09T13:16:07.898Z,41.73
2018-02-09T13:18:47.139Z,40.10
2018-02-09T13:21:14.639Z,40.10
2018-02-09T13:23:53.879Z,40.93
2018-02-09T13:26:21.382Z,42.03
2018-02-09T13:28:59.640Z,41.17
2018-02-09T13:31:27.159Z,41.90
2018-02-09T13:33:54.644Z,44.03
2018-02-09T13:36:33.894Z,43.67
2018-02-09T13:39:01.385Z,45.20
2018-02-09T13:41:29.674Z,42.80
2018-02-09T13:43:57.935Z,41.47
2018-02-09T13:46:25.440Z,41.43
2018-02-09T13:48:53.687Z,42.57
2018-02-09T13:51:21.194Z,40.57
2018-02-09T13:53:49.441Z,39.20
2018-02-09T13:56:16.937Z,42.83
2018-02-09T13:58:44.481Z,56.80
2018-02-09T14:01:12.886Z,42.03
2018-02-09T14:03:40.379Z,40.77
2018-02-09T14:06:08.647Z,41.87
2018-02-09T14:08:36.159Z,39.87
2018-02-09T14:11:03.650Z,42.47
2018-02-09T14:13:31.139Z,43.90
2018-02-09T14:15:58.634Z,43.23
2018-02-09T14:18:26.905Z,42.33
2018-02-09T14:20:54.398Z,45.30
2018-02-09T14:23:21.923Z,42.40
2018-02-09T14:25:49.427Z,40.87
2018-02-09T14:28:16.943Z,41.60
2018-02-09T14:30:44.437Z,42.77
2018-02-09T14:33:11.910Z,40.20
2018-02-09T14:35:39.412Z,42.33
2018-02-09T14:38:06.886Z,44.07
2018-02-09T14:40:34.383Z,42.27
2018-02-09T14:43:01.863Z,42.60
2018-02-09T14:45:29.374Z,40.40
2018-02-09T14:47:56.851Z,41.67
2018-02-09T14:50:24.351Z,40.97
2018-02-09T14:52:52.600Z,41.20
2018-02-09T14:55:20.124Z,41.60
2018-02-09T14:57:47.611Z,40.03
2018-02-09T15:00:15.121Z,43.00
2018-02-09T15:02:42.648Z,39.53
2018-02-09T15:05:10.146Z,44.47
2018-02-09T15:07:37.642Z,39.73
2018-02-09T15:10:05.127Z,39.23
2018-02-09T15:12:33.401Z,40.03
2018-02-09T15:15:00.903Z,40.97
2018-02-09T15:17:28.408Z,39.83
2018-02-09T15:19:55.888Z,40.70
2018-02-09T15:22:23.382Z,39.40
2018-02-09T15:24:50.854Z,43.17
2018-02-09T15:27:18.354Z,39.83
2018-02-09T15:29:45.853Z,44.43
2018-02-09T15:32:13.404Z,42.00
2018-02-09T15:34:40.903Z,43.63
2018-02-09T15:37:08.398Z,40.30
2018-02-09T15:39:35.882Z,40.90
2018-02-09T15:42:03.378Z,40.73
2018-02-09T15:44:30.858Z,44.87
2018-02-09T15:46:58.353Z,40.40
2018-02-09T15:49:25.878Z,41.87
2018-02-09T15:51:53.391Z,40.10
2018-02-09T15:54:20.871Z,40.50
2018-02-09T15:56:48.366Z,40.70
2018-02-09T15:59:15.854Z,41.60
2018-02-09T16:01:44.143Z,42.93
2018-02-09T16:04:12.399Z,37.67
2018-02-09T16:06:39.909Z,39.73
2018-02-09T16:09:08.150Z,39.80
2018-02-09T16:11:35.652Z,48.90
2018-02-09T16:14:03.179Z,90.97
2018-02-09T16:16:30.686Z,57.60
2018-02-09T16:18:58.171Z,41.40
2018-02-09T16:21:26.439Z,36.60
2018-02-09T16:23:53.919Z,44.30
2018-02-09T16:26:22.188Z,37.03
2018-02-09T16:28:49.670Z,35.33
2018-02-09T16:31:17.176Z,35.60
2018-02-09T16:33:44.660Z,34.93
2018-02-09T16:36:12.204Z,35.17
2018-02-09T16:38:39.718Z,34.57
2018-02-09T16:41:07.219Z,34.20
2018-02-09T16:43:34.702Z,37.93
2018-02-09T16:46:02.966Z,39.57
2018-02-09T16:48:30.442Z,40.87
2018-02-09T16:50:57.951Z,38.53
2018-02-09T16:53:25.432Z,41.87
2018-02-09T16:55:52.935Z,43.83
2018-02-09T16:58:20.416Z,54.03
2018-02-09T17:00:47.919Z,75.57
2018-02-09T17:03:16.167Z,47.40
2018-02-09T17:05:43.645Z,47.90
2018-02-09T17:08:11.150Z,40.50
2018-02-09T17:10:38.626Z,62.87
2018-02-09T17:13:06.130Z,38.37
2018-02-09T17:15:33.611Z,43.67
2018-02-09T17:18:01.106Z,86.23
2018-02-09T17:20:28.594Z,64.53
2018-02-09T17:22:56.872Z,59.40
2018-02-09T17:25:25.110Z,43.73
2018-02-09T17:27:52.610Z,40.50
2018-02-09T17:30:20.098Z,45.77
2018-02-09T17:32:48.366Z,37.00
2018-02-09T17:35:15.855Z,35.30
2018-02-09T17:37:43.355Z,34.63
2018-02-09T17:40:10.834Z,37.50
2018-02-09T17:42:38.334Z,36.40
2018-02-09T17:45:05.816Z,38.20
2018-02-09T17:47:33.314Z,39.30
2018-02-09T17:50:01.559Z,35.73
2018-02-09T17:52:29.058Z,35.23
2018-02-09T17:54:56.547Z,31.90
2018-02-09T17:57:24.827Z,32.87
2018-02-09T17:59:53.074Z,34.70
2018-02-09T18:02:20.577Z,31.10
2018-02-09T18:04:48.059Z,34.43
2018-02-09T18:07:16.318Z,30.10
2018-02-09T18:09:43.800Z,31.97
2018-02-09T18:12:11.314Z,31.83
2018-02-09T18:14:38.792Z,31.60
2018-02-09T18:17:06.298Z,34.80
2018-02-09T18:19:33.784Z,32.17
2018-02-09T18:22:01.274Z,33.80
2018-02-09T18:24:29.515Z,39.30
2018-02-09T18:26:57.024Z,56.13
2018-02-09T18:29:25.267Z,36.47
2018-02-09T18:31:52.779Z,35.67
2018-02-09T18:34:21.019Z,36.47
2018-02-09T18:36:48.526Z,33.80
2018-02-09T18:39:16.038Z,33.40
2018-02-09T18:41:43.532Z,32.70
2018-02-09T18:44:11.039Z,32.60
2018-02-09T18:46:38.522Z,31.00
2018-02-09T18:49:06.786Z,35.53
2018-02-09T18:51:34.274Z,42.67
2018-02-09T18:54:01.774Z,32.40
2018-02-09T18:56:29.255Z,33.17
2018-02-09T18:58:56.769Z,38.27
2018-02-09T19:01:24.251Z,31.93
2018-02-09T19:03:51.751Z,30.83
2018-02-09T19:06:19.235Z,31.27
2018-02-09T19:08:46.735Z,35.97
2018-02-09T19:11:14.230Z,32.50
2018-02-09T19:13:41.721Z,35.77
2018-02-09T19:16:09.999Z,37.70
2018-02-09T19:18:38.250Z,31.30
2018-02-09T19:21:05.746Z,30.10
2018-02-09T19:23:33.230Z,31.97
2018-02-09T19:26:01.487Z,30.40
2018-02-09T19:28:29.030Z,40.27
2018-02-09T19:30:56.539Z,37.87
2018-02-09T19:33:24.018Z,31.70
2018-02-09T19:35:51.519Z,32.07
2018-02-09T19:38:19.004Z,31.20
2018-02-09T19:40:46.530Z,31.47
2018-02-09T19:43:14.023Z,31.57
2018-02-09T19:45:42.303Z,32.00
2018-02-09T19:48:10.542Z,30.90
2018-02-09T19:50:38.033Z,29.90
2018-02-09T19:53:05.552Z,31.30
2018-02-09T19:55:33.039Z,31.30
2018-02-09T19:58:00.562Z,32.23
2018-02-09T20:00:28.813Z,29.57
2018-02-09T20:02:56.315Z,27.47
2018-02-09T20:05:23.803Z,27.57
2018-02-09T20:07:52.074Z,26.33
2018-02-09T20:10:19.781Z,27.43
2018-02-09T20:12:48.055Z,26.93
2018-02-09T20:15:16.303Z,28.40
2018-02-09T20:17:43.798Z,27.53
2018-02-09T20:20:11.294Z,26.80
2018-02-09T20:22:38.786Z,26.00
2018-02-09T20:25:06.263Z,32.80
2018-02-09T20:27:33.767Z,30.93
2018-02-09T20:30:01.246Z,32.47
2018-02-09T20:32:29.523Z,32.77
2018-02-09T20:34:57.003Z,30.80
2018-02-09T20:37:24.498Z,30.77
2018-02-09T20:39:51.979Z,27.67
2018-02-09T20:42:19.479Z,29.17
2018-02-09T20:44:46.958Z,27.43
2018-02-09T20:47:14.463Z,29.17
2018-02-09T20:49:42.710Z,27.50
2018-02-09T20:52:10.213Z,42.77
2018-02-09T20:54:38.459Z,26.87
2018-02-09T20:57:05.968Z,31.63
2018-02-09T20:59:33.443Z,37.47
2018-02-09T21:02:01.707Z,30.30
2018-02-09T21:04:29.206Z,28.23
2018-02-09T21:06:57.502Z,28.93
2018-02-09T21:09:24.971Z,26.47
2018-02-09T21:11:53.275Z,30.17
2018-02-09T21:14:20.753Z,28.03
2018-02-09T21:16:48.257Z,30.20
2018-02-09T21:19:15.730Z,28.20
2018-02-09T21:21:43.226Z,29.27
2018-02-09T21:24:10.724Z,28.37
2018-02-09T21:26:38.198Z,27.70
2018-02-09T21:29:05.703Z,27.60
2018-02-09T21:31:33.183Z,27.13
2018-02-09T21:34:00.682Z,30.20
2018-02-09T21:36:28.923Z,29.40
2018-02-09T21:38:56.422Z,27.63
2018-02-09T21:41:23.902Z,28.23
2018-02-09T21:43:51.402Z,26.60
2018-02-09T21:46:18.879Z,28.40
2018-02-09T21:48:46.382Z,30.60
2018-02-09T21:51:13.866Z,28.77
2018-02-09T21:53:41.388Z,28.80
2018-02-09T21:56:08.867Z,33.83
2018-02-09T21:58:36.378Z,28.23
2018-02-09T22:01:03.854Z,28.40
2018-02-09T22:03:31.355Z,29.70
2018-02-09T22:05:59.598Z,27.67
2018-02-09T22:08:27.103Z,28.00
2018-02-09T22:10:55.356Z,30.60
2018-02-09T22:13:22.847Z,29.17
2018-02-09T22:15:50.323Z,28.93
2018-02-09T22:18:18.586Z,30.63
2018-02-09T22:20:46.067Z,31.17
2018-02-09T22:23:13.572Z,32.80
2018-02-09T22:25:41.055Z,32.47
2018-02-09T22:28:08.554Z,29.20
2018-02-09T22:30:36.031Z,30.50
2018-02-09T22:33:03.526Z,32.50
2018-02-09T22:35:31.003Z,29.80
2018-02-09T22:37:58.502Z,30.37
2018-02-09T22:40:25.983Z,31.17
2018-02-09T22:42:53.482Z,30.40
2018-02-09T22:45:20.964Z,30.77
2018-02-09T22:47:48.454Z,30.60
2018-02-09T22:50:16.700Z,31.07
2018-02-09T22:52:44.200Z,31.17
2018-02-09T22:55:11.673Z,30.23
2018-02-09T22:57:39.171Z,29.43
2018-02-09T23:00:06.744Z,29.93
2018-02-09T23:02:34.250Z,31.17
2018-02-09T23:05:01.732Z,30.27
2018-02-09T23:07:29.210Z,29.00
2018-02-09T23:09:56.712Z,32.30
2018-02-09T23:12:24.959Z,30.47
2018-02-09T23:14:52.464Z,31.70
2018-02-09T23:17:20.710Z,31.10
2018-02-09T23:19:48.214Z,31.07
2018-02-09T23:22:15.690Z,31.27
2018-02-09T23:24:43.959Z,33.20
2018-02-09T23:27:11.447Z,55.80
2018-02-09T23:29:39.738Z,57.30
2018-02-09T23:32:07.991Z,34.07
2018-02-09T23:34:35.487Z,32.50
2018-02-09T23:37:02.963Z,33.40
2018-02-09T23:39:31.211Z,33.20
2018-02-09T23:41:58.707Z,31.50
2018-02-09T23:44:26.186Z,31.80
2018-02-09T23:46:53.686Z,32.57
2018-02-09T23:49:21.165Z,31.90
2018-02-09T23:51:49.435Z,30.73
2018-02-09T23:54:17.679Z,31.30
2018-02-09T23:56:45.183Z,32.43
2018-02-09T23:59:12.686Z,33.10
